sensor_id;sensor_type;location;lat;lon;timestamp;P1;durP1;ratioP1;P2;durP2;ratioP2
50569;SDS011;36525;49.398;7.614;2022-12-18T00:03:55;30.20;;;10.05;;
50569;SDS011;36525;49.398;7.614;2022-12-18T00:06:23;28.90;;;11.18;;
50569;SDS011;36525;49.398;7.614;2022-12-18T00:08:52;40.15;;;16.27;;
50569;SDS011;36525;49.398;7.614;2022-12-18T00:11:21;40.85;;;13.68;;
50569;SDS011;36525;49.398;7.614;2022-12-18T00:13:51;38.35;;;13.75;;
50569;SDS011;36525;49.398;7.614;2022-12-18T00:16:20;34.95;;;13.43;;
50569;SDS011;36525;49.398;7.614;2022-12-18T00:18:51;37.53;;;13.52;;
50569;SDS011;36525;49.398;7.614;2022-12-18T00:21:20;37.15;;;13.60;;
50569;SDS011;36525;49.398;7.614;2022-12-18T00:23:48;44.50;;;14.95;;
50569;SDS011;36525;49.398;7.614;2022-12-18T00:26:18;46.35;;;16.50;;
50569;SDS011;36525;49.398;7.614;2022-12-18T00:28:48;38.05;;;15.38;;
50569;SDS011;36525;49.398;7.614;2022-12-18T00:31:17;41.80;;;15.02;;
50569;SDS011;36525;49.398;7.614;2022-12-18T00:33:49;45.42;;;16.92;;
50569;SDS011;36525;49.398;7.614;2022-12-18T00:36:22;43.15;;;15.18;;
50569;SDS011;36525;49.398;7.614;2022-12-18T00:38:53;37.58;;;13.65;;
50569;SDS011;36525;49.398;7.614;2022-12-18T00:41:21;40.42;;;14.15;;
50569;SDS011;36525;49.398;7.614;2022-12-18T00:44:09;50.85;;;18.27;;
50569;SDS011;36525;49.398;7.614;2022-12-18T00:46:39;38.92;;;14.65;;
50569;SDS011;36525;49.398;7.614;2022-12-18T00:49:06;45.63;;;14.73;;
50569;SDS011;36525;49.398;7.614;2022-12-18T00:51:34;42.45;;;16.02;;
50569;SDS011;36525;49.398;7.614;2022-12-18T00:54:01;38.67;;;15.15;;
50569;SDS011;36525;49.398;7.614;2022-12-18T00:56:28;38.30;;;14.50;;
50569;SDS011;36525;49.398;7.614;2022-12-18T00:58:55;44.08;;;16.27;;
50569;SDS011;36525;49.398;7.614;2022-12-18T01:01:22;43.08;;;15.20;;
50569;SDS011;36525;49.398;7.614;2022-12-18T01:03:49;39.70;;;15.40;;
50569;SDS011;36525;49.398;7.614;2022-12-18T01:06:16;37.90;;;14.68;;
50569;SDS011;36525;49.398;7.614;2022-12-18T01:08:43;45.45;;;17.15;;
50569;SDS011;36525;49.398;7.614;2022-12-18T01:11:11;37.78;;;14.90;;
50569;SDS011;36525;49.398;7.614;2022-12-18T01:13:41;42.15;;;14.80;;
50569;SDS011;36525;49.398;7.614;2022-12-18T01:16:11;40.00;;;15.50;;
50569;SDS011;36525;49.398;7.614;2022-12-18T01:18:40;40.05;;;15.98;;
50569;SDS011;36525;49.398;7.614;2022-12-18T01:21:08;44.60;;;15.60;;
50569;SDS011;36525;49.398;7.614;2022-12-18T01:23:38;31.67;;;13.65;;
50569;SDS011;36525;49.398;7.614;2022-12-18T01:26:07;35.72;;;15.00;;
50569;SDS011;36525;49.398;7.614;2022-12-18T01:28:39;38.95;;;14.93;;
50569;SDS011;36525;49.398;7.614;2022-12-18T01:31:21;41.80;;;14.77;;
50569;SDS011;36525;49.398;7.614;2022-12-18T01:33:57;55.05;;;19.10;;
50569;SDS011;36525;49.398;7.614;2022-12-18T01:36:30;45.08;;;18.52;;
50569;SDS011;36525;49.398;7.614;2022-12-18T01:39:04;44.78;;;16.83;;
50569;SDS011;36525;49.398;7.614;2022-12-18T01:41:35;42.65;;;16.25;;
50569;SDS011;36525;49.398;7.614;2022-12-18T01:52:48;41.67;;;17.17;;
50569;SDS011;36525;49.398;7.614;2022-12-18T01:55:22;44.35;;;14.82;;
50569;SDS011;36525;49.398;7.614;2022-12-18T01:57:52;34.08;;;13.55;;
50569;SDS011;36525;49.398;7.614;2022-12-18T02:00:22;45.53;;;17.58;;
50569;SDS011;36525;49.398;7.614;2022-12-18T02:02:52;49.45;;;18.23;;
50569;SDS011;36525;49.398;7.614;2022-12-18T02:11:18;36.30;;;13.55;;
50569;SDS011;36525;49.398;7.614;2022-12-18T02:14:38;39.33;;;13.63;;
50569;SDS011;36525;49.398;7.614;2022-12-18T02:28:28;33.45;;;11.30;;
50569;SDS011;36525;49.398;7.614;2022-12-18T02:30:59;32.70;;;12.60;;
50569;SDS011;36525;49.398;7.614;2022-12-18T02:33:29;35.53;;;13.23;;
50569;SDS011;36525;49.398;7.614;2022-12-18T02:35:57;38.67;;;14.65;;
50569;SDS011;36525;49.398;7.614;2022-12-18T02:38:26;45.45;;;15.60;;
50569;SDS011;36525;49.398;7.614;2022-12-18T02:40:55;49.63;;;16.88;;
50569;SDS011;36525;49.398;7.614;2022-12-18T02:43:22;48.28;;;16.65;;
50569;SDS011;36525;49.398;7.614;2022-12-18T02:45:52;43.00;;;15.32;;
50569;SDS011;36525;49.398;7.614;2022-12-18T02:48:29;42.05;;;15.23;;
50569;SDS011;36525;49.398;7.614;2022-12-18T02:51:03;39.65;;;13.65;;
50569;SDS011;36525;49.398;7.614;2022-12-18T02:53:50;45.88;;;14.70;;
50569;SDS011;36525;49.398;7.614;2022-12-18T02:56:29;42.13;;;14.90;;
50569;SDS011;36525;49.398;7.614;2022-12-18T02:59:06;39.47;;;14.45;;
50569;SDS011;36525;49.398;7.614;2022-12-18T03:04:14;47.53;;;18.23;;
50569;SDS011;36525;49.398;7.614;2022-12-18T03:06:54;43.72;;;15.90;;
50569;SDS011;36525;49.398;7.614;2022-12-18T03:09:29;38.03;;;14.27;;
50569;SDS011;36525;49.398;7.614;2022-12-18T03:12:24;36.60;;;14.07;;
50569;SDS011;36525;49.398;7.614;2022-12-18T03:15:04;42.53;;;14.98;;
50569;SDS011;36525;49.398;7.614;2022-12-18T03:17:52;46.17;;;15.18;;
50569;SDS011;36525;49.398;7.614;2022-12-18T03:20:32;52.42;;;20.27;;
50569;SDS011;36525;49.398;7.614;2022-12-18T03:23:04;47.15;;;19.55;;
50569;SDS011;36525;49.398;7.614;2022-12-18T03:25:39;40.53;;;16.88;;
50569;SDS011;36525;49.398;7.614;2022-12-18T03:28:10;52.35;;;19.25;;
50569;SDS011;36525;49.398;7.614;2022-12-18T03:30:44;41.70;;;15.38;;
50569;SDS011;36525;49.398;7.614;2022-12-18T03:33:18;50.55;;;17.95;;
50569;SDS011;36525;49.398;7.614;2022-12-18T03:35:52;50.03;;;17.45;;
50569;SDS011;36525;49.398;7.614;2022-12-18T03:38:19;48.03;;;18.55;;
50569;SDS011;36525;49.398;7.614;2022-12-18T03:43:38;47.67;;;18.60;;
50569;SDS011;36525;49.398;7.614;2022-12-18T03:46:22;42.55;;;16.20;;
50569;SDS011;36525;49.398;7.614;2022-12-18T03:49:08;46.03;;;17.45;;
50569;SDS011;36525;49.398;7.614;2022-12-18T03:54:31;40.47;;;15.90;;
50569;SDS011;36525;49.398;7.614;2022-12-18T03:57:06;43.47;;;16.75;;
50569;SDS011;36525;49.398;7.614;2022-12-18T03:59:43;46.33;;;15.38;;
50569;SDS011;36525;49.398;7.614;2022-12-18T04:02:12;42.50;;;13.88;;
50569;SDS011;36525;49.398;7.614;2022-12-18T04:04:40;39.17;;;13.90;;
50569;SDS011;36525;49.398;7.614;2022-12-18T04:07:08;30.90;;;12.35;;
50569;SDS011;36525;49.398;7.614;2022-12-18T04:09:36;39.65;;;14.70;;
50569;SDS011;36525;49.398;7.614;2022-12-18T04:12:05;36.38;;;13.35;;
50569;SDS011;36525;49.398;7.614;2022-12-18T04:14:32;35.92;;;13.75;;
50569;SDS011;36525;49.398;7.614;2022-12-18T04:17:02;36.60;;;11.65;;
50569;SDS011;36525;49.398;7.614;2022-12-18T04:19:29;40.55;;;13.95;;
50569;SDS011;36525;49.398;7.614;2022-12-18T04:21:56;38.25;;;12.10;;
50569;SDS011;36525;49.398;7.614;2022-12-18T04:24:24;49.97;;;18.70;;
50569;SDS011;36525;49.398;7.614;2022-12-18T04:26:51;45.78;;;15.43;;
50569;SDS011;36525;49.398;7.614;2022-12-18T04:29:18;43.90;;;15.77;;
50569;SDS011;36525;49.398;7.614;2022-12-18T04:31:46;43.28;;;15.30;;
50569;SDS011;36525;49.398;7.614;2022-12-18T04:34:13;48.40;;;16.00;;
50569;SDS011;36525;49.398;7.614;2022-12-18T04:36:41;53.38;;;18.27;;
50569;SDS011;36525;49.398;7.614;2022-12-18T04:39:08;52.33;;;17.55;;
50569;SDS011;36525;49.398;7.614;2022-12-18T04:41:35;50.65;;;17.27;;
50569;SDS011;36525;49.398;7.614;2022-12-18T04:44:03;51.88;;;17.25;;
50569;SDS011;36525;49.398;7.614;2022-12-18T04:46:30;40.50;;;15.68;;
50569;SDS011;36525;49.398;7.614;2022-12-18T04:48:57;54.08;;;18.73;;
50569;SDS011;36525;49.398;7.614;2022-12-18T04:51:25;49.35;;;18.63;;
50569;SDS011;36525;49.398;7.614;2022-12-18T04:53:52;46.63;;;16.48;;
50569;SDS011;36525;49.398;7.614;2022-12-18T04:56:20;53.57;;;19.30;;
50569;SDS011;36525;49.398;7.614;2022-12-18T04:58:47;46.70;;;17.42;;
50569;SDS011;36525;49.398;7.614;2022-12-18T05:01:16;52.50;;;18.08;;
50569;SDS011;36525;49.398;7.614;2022-12-18T05:03:44;54.50;;;17.42;;
50569;SDS011;36525;49.398;7.614;2022-12-18T05:06:11;52.28;;;16.45;;
50569;SDS011;36525;49.398;7.614;2022-12-18T05:08:39;59.22;;;18.27;;
50569;SDS011;36525;49.398;7.614;2022-12-18T05:11:07;49.95;;;17.58;;
50569;SDS011;36525;49.398;7.614;2022-12-18T05:13:36;56.60;;;18.58;;
50569;SDS011;36525;49.398;7.614;2022-12-18T05:16:04;51.50;;;16.65;;
50569;SDS011;36525;49.398;7.614;2022-12-18T05:18:32;46.95;;;15.68;;
50569;SDS011;36525;49.398;7.614;2022-12-18T05:21:00;63.38;;;19.55;;
50569;SDS011;36525;49.398;7.614;2022-12-18T05:23:27;42.63;;;15.95;;
50569;SDS011;36525;49.398;7.614;2022-12-18T05:25:58;60.93;;;17.70;;
50569;SDS011;36525;49.398;7.614;2022-12-18T05:28:28;48.25;;;15.52;;
50569;SDS011;36525;49.398;7.614;2022-12-18T05:30:56;45.95;;;15.85;;
50569;SDS011;36525;49.398;7.614;2022-12-18T05:33:26;46.40;;;16.80;;
50569;SDS011;36525;49.398;7.614;2022-12-18T05:35:56;48.40;;;16.77;;
50569;SDS011;36525;49.398;7.614;2022-12-18T05:38:25;57.83;;;17.70;;
50569;SDS011;36525;49.398;7.614;2022-12-18T05:40:53;58.47;;;19.40;;
50569;SDS011;36525;49.398;7.614;2022-12-18T05:43:21;43.60;;;17.33;;
50569;SDS011;36525;49.398;7.614;2022-12-18T05:45:49;57.75;;;19.38;;
50569;SDS011;36525;49.398;7.614;2022-12-18T05:48:17;45.63;;;15.65;;
50569;SDS011;36525;49.398;7.614;2022-12-18T05:50:45;56.08;;;17.08;;
50569;SDS011;36525;49.398;7.614;2022-12-18T05:53:14;46.75;;;15.10;;
50569;SDS011;36525;49.398;7.614;2022-12-18T05:55:42;54.85;;;18.25;;
50569;SDS011;36525;49.398;7.614;2022-12-18T05:58:10;41.50;;;15.77;;
50569;SDS011;36525;49.398;7.614;2022-12-18T06:00:39;52.33;;;17.73;;
50569;SDS011;36525;49.398;7.614;2022-12-18T06:03:10;51.03;;;17.45;;
50569;SDS011;36525;49.398;7.614;2022-12-18T06:05:39;53.20;;;19.25;;
50569;SDS011;36525;49.398;7.614;2022-12-18T06:08:08;45.42;;;16.40;;
50569;SDS011;36525;49.398;7.614;2022-12-18T06:10:36;50.20;;;17.10;;
50569;SDS011;36525;49.398;7.614;2022-12-18T06:13:04;48.13;;;15.90;;
50569;SDS011;36525;49.398;7.614;2022-12-18T06:15:32;49.20;;;16.33;;
50569;SDS011;36525;49.398;7.614;2022-12-18T06:18:02;46.95;;;17.63;;
50569;SDS011;36525;49.398;7.614;2022-12-18T06:20:32;46.42;;;18.23;;
50569;SDS011;36525;49.398;7.614;2022-12-18T06:23:02;53.55;;;18.30;;
50569;SDS011;36525;49.398;7.614;2022-12-18T06:25:30;51.63;;;17.45;;
50569;SDS011;36525;49.398;7.614;2022-12-18T06:27:57;46.42;;;16.83;;
50569;SDS011;36525;49.398;7.614;2022-12-18T06:30:24;44.47;;;16.05;;
50569;SDS011;36525;49.398;7.614;2022-12-18T06:32:52;54.63;;;17.30;;
50569;SDS011;36525;49.398;7.614;2022-12-18T06:35:22;48.60;;;16.83;;
50569;SDS011;36525;49.398;7.614;2022-12-18T06:37:49;47.90;;;15.23;;
50569;SDS011;36525;49.398;7.614;2022-12-18T06:40:17;43.67;;;16.40;;
50569;SDS011;36525;49.398;7.614;2022-12-18T06:42:44;41.33;;;14.27;;
50569;SDS011;36525;49.398;7.614;2022-12-18T06:45:15;41.47;;;15.30;;
50569;SDS011;36525;49.398;7.614;2022-12-18T06:47:42;39.92;;;13.93;;
50569;SDS011;36525;49.398;7.614;2022-12-18T06:50:10;44.53;;;15.63;;
50569;SDS011;36525;49.398;7.614;2022-12-18T06:52:37;38.90;;;14.65;;
50569;SDS011;36525;49.398;7.614;2022-12-18T06:55:09;46.33;;;16.42;;
50569;SDS011;36525;49.398;7.614;2022-12-18T06:57:37;44.22;;;16.17;;
50569;SDS011;36525;49.398;7.614;2022-12-18T07:00:05;44.92;;;14.77;;
50569;SDS011;36525;49.398;7.614;2022-12-18T07:02:33;37.58;;;14.93;;
50569;SDS011;36525;49.398;7.614;2022-12-18T07:05:00;42.58;;;15.48;;
50569;SDS011;36525;49.398;7.614;2022-12-18T07:07:35;47.45;;;15.35;;
50569;SDS011;36525;49.398;7.614;2022-12-18T07:10:03;45.17;;;15.88;;
50569;SDS011;36525;49.398;7.614;2022-12-18T07:12:30;43.00;;;14.15;;
50569;SDS011;36525;49.398;7.614;2022-12-18T07:14:58;51.63;;;16.52;;
50569;SDS011;36525;49.398;7.614;2022-12-18T07:17:25;39.60;;;13.90;;
50569;SDS011;36525;49.398;7.614;2022-12-18T07:19:53;43.42;;;15.27;;
50569;SDS011;36525;49.398;7.614;2022-12-18T07:22:20;41.35;;;14.45;;
50569;SDS011;36525;49.398;7.614;2022-12-18T07:24:47;41.10;;;14.63;;
50569;SDS011;36525;49.398;7.614;2022-12-18T07:27:15;41.35;;;14.05;;
50569;SDS011;36525;49.398;7.614;2022-12-18T07:29:42;45.22;;;13.95;;
50569;SDS011;36525;49.398;7.614;2022-12-18T07:32:09;42.38;;;15.30;;
50569;SDS011;36525;49.398;7.614;2022-12-18T07:34:37;43.80;;;15.95;;
50569;SDS011;36525;49.398;7.614;2022-12-18T07:37:04;44.20;;;14.15;;
50569;SDS011;36525;49.398;7.614;2022-12-18T07:39:32;44.75;;;16.25;;
50569;SDS011;36525;49.398;7.614;2022-12-18T07:41:59;35.28;;;13.85;;
50569;SDS011;36525;49.398;7.614;2022-12-18T07:44:46;39.88;;;14.13;;
50569;SDS011;36525;49.398;7.614;2022-12-18T07:47:13;39.75;;;13.43;;
50569;SDS011;36525;49.398;7.614;2022-12-18T07:49:41;36.63;;;11.23;;
50569;SDS011;36525;49.398;7.614;2022-12-18T07:52:08;36.58;;;13.45;;
50569;SDS011;36525;49.398;7.614;2022-12-18T07:54:35;43.63;;;16.35;;
50569;SDS011;36525;49.398;7.614;2022-12-18T07:57:02;39.33;;;13.57;;
50569;SDS011;36525;49.398;7.614;2022-12-18T08:02:13;46.75;;;15.60;;
50569;SDS011;36525;49.398;7.614;2022-12-18T08:04:41;41.08;;;13.27;;
50569;SDS011;36525;49.398;7.614;2022-12-18T08:07:08;45.58;;;14.85;;
50569;SDS011;36525;49.398;7.614;2022-12-18T08:09:36;36.58;;;13.10;;
50569;SDS011;36525;49.398;7.614;2022-12-18T08:12:03;39.58;;;13.73;;
50569;SDS011;36525;49.398;7.614;2022-12-18T08:14:31;36.90;;;12.93;;
50569;SDS011;36525;49.398;7.614;2022-12-18T08:16:58;43.17;;;14.70;;
50569;SDS011;36525;49.398;7.614;2022-12-18T08:19:26;37.70;;;13.80;;
50569;SDS011;36525;49.398;7.614;2022-12-18T08:21:53;31.15;;;10.68;;
50569;SDS011;36525;49.398;7.614;2022-12-18T08:24:20;31.42;;;11.60;;
50569;SDS011;36525;49.398;7.614;2022-12-18T08:26:48;37.55;;;14.75;;
50569;SDS011;36525;49.398;7.614;2022-12-18T08:29:35;29.95;;;12.38;;
50569;SDS011;36525;49.398;7.614;2022-12-18T08:32:02;43.65;;;15.48;;
50569;SDS011;36525;49.398;7.614;2022-12-18T08:34:30;35.17;;;13.50;;
50569;SDS011;36525;49.398;7.614;2022-12-18T08:36:57;49.78;;;19.35;;
50569;SDS011;36525;49.398;7.614;2022-12-18T08:39:24;75.15;;;28.20;;
50569;SDS011;36525;49.398;7.614;2022-12-18T08:41:51;95.47;;;34.33;;
50569;SDS011;36525;49.398;7.614;2022-12-18T08:44:37;54.83;;;20.77;;
50569;SDS011;36525;49.398;7.614;2022-12-18T08:47:05;50.78;;;18.50;;
50569;SDS011;36525;49.398;7.614;2022-12-18T08:49:33;87.20;;;34.55;;
50569;SDS011;36525;49.398;7.614;2022-12-18T08:52:00;56.35;;;21.90;;
50569;SDS011;36525;49.398;7.614;2022-12-18T08:54:29;53.92;;;20.80;;
50569;SDS011;36525;49.398;7.614;2022-12-18T08:56:56;53.08;;;19.35;;
50569;SDS011;36525;49.398;7.614;2022-12-18T08:59:24;45.05;;;15.98;;
50569;SDS011;36525;49.398;7.614;2022-12-18T09:01:53;50.95;;;18.20;;
50569;SDS011;36525;49.398;7.614;2022-12-18T09:04:21;44.05;;;16.77;;
50569;SDS011;36525;49.398;7.614;2022-12-18T09:06:49;50.20;;;18.58;;
50569;SDS011;36525;49.398;7.614;2022-12-18T09:09:16;56.05;;;19.75;;
50569;SDS011;36525;49.398;7.614;2022-12-18T09:11:44;50.53;;;20.08;;
50569;SDS011;36525;49.398;7.614;2022-12-18T09:14:11;47.38;;;18.48;;
50569;SDS011;36525;49.398;7.614;2022-12-18T09:16:38;45.58;;;16.73;;
50569;SDS011;36525;49.398;7.614;2022-12-18T09:19:06;43.35;;;15.90;;
50569;SDS011;36525;49.398;7.614;2022-12-18T09:21:34;50.65;;;20.73;;
50569;SDS011;36525;49.398;7.614;2022-12-18T09:24:02;49.45;;;19.17;;
50569;SDS011;36525;49.398;7.614;2022-12-18T09:26:34;54.97;;;18.55;;
50569;SDS011;36525;49.398;7.614;2022-12-18T09:29:01;52.70;;;19.33;;
50569;SDS011;36525;49.398;7.614;2022-12-18T09:31:29;57.20;;;21.63;;
50569;SDS011;36525;49.398;7.614;2022-12-18T09:33:57;50.08;;;18.02;;
50569;SDS011;36525;49.398;7.614;2022-12-18T09:36:24;43.78;;;18.48;;
50569;SDS011;36525;49.398;7.614;2022-12-18T09:38:51;48.58;;;18.10;;
50569;SDS011;36525;49.398;7.614;2022-12-18T09:43:57;51.55;;;19.63;;
50569;SDS011;36525;49.398;7.614;2022-12-18T09:46:57;55.90;;;22.35;;
50569;SDS011;36525;49.398;7.614;2022-12-18T09:49:27;46.13;;;19.23;;
50569;SDS011;36525;49.398;7.614;2022-12-18T09:51:58;47.95;;;18.15;;
50569;SDS011;36525;49.398;7.614;2022-12-18T09:54:33;57.85;;;24.80;;
50569;SDS011;36525;49.398;7.614;2022-12-18T09:57:04;49.50;;;20.85;;
50569;SDS011;36525;49.398;7.614;2022-12-18T09:59:36;57.17;;;20.98;;
50569;SDS011;36525;49.398;7.614;2022-12-18T10:04:40;51.63;;;19.90;;
50569;SDS011;36525;49.398;7.614;2022-12-18T10:07:12;51.25;;;21.85;;
50569;SDS011;36525;49.398;7.614;2022-12-18T10:12:49;47.35;;;19.00;;
50569;SDS011;36525;49.398;7.614;2022-12-18T10:18:06;51.25;;;24.63;;
50569;SDS011;36525;49.398;7.614;2022-12-18T10:20:57;49.00;;;23.40;;
50569;SDS011;36525;49.398;7.614;2022-12-18T10:26:17;42.72;;;18.80;;
50569;SDS011;36525;49.398;7.614;2022-12-18T10:28:46;39.95;;;18.13;;
50569;SDS011;36525;49.398;7.614;2022-12-18T10:31:16;57.65;;;27.50;;
50569;SDS011;36525;49.398;7.614;2022-12-18T10:33:45;75.22;;;37.33;;
50569;SDS011;36525;49.398;7.614;2022-12-18T10:36:13;69.22;;;34.72;;
50569;SDS011;36525;49.398;7.614;2022-12-18T10:38:40;58.03;;;25.77;;
50569;SDS011;36525;49.398;7.614;2022-12-18T10:43:47;71.28;;;34.55;;
50569;SDS011;36525;49.398;7.614;2022-12-18T10:46:15;65.65;;;32.60;;
50569;SDS011;36525;49.398;7.614;2022-12-18T10:53:51;58.53;;;30.73;;
50569;SDS011;36525;49.398;7.614;2022-12-18T10:56:42;55.72;;;23.40;;
50569;SDS011;36525;49.398;7.614;2022-12-18T10:59:12;52.63;;;26.98;;
50569;SDS011;36525;49.398;7.614;2022-12-18T11:04:35;50.95;;;26.45;;
50569;SDS011;36525;49.398;7.614;2022-12-18T11:07:16;47.35;;;23.52;;
50569;SDS011;36525;49.398;7.614;2022-12-18T11:09:43;49.80;;;26.13;;
50569;SDS011;36525;49.398;7.614;2022-12-18T11:14:53;43.47;;;22.52;;
50569;SDS011;36525;49.398;7.614;2022-12-18T11:20:00;94.45;;;46.25;;
50569;SDS011;36525;49.398;7.614;2022-12-18T11:22:30;47.90;;;26.92;;
50569;SDS011;36525;49.398;7.614;2022-12-18T11:27:52;64.70;;;34.25;;
50569;SDS011;36525;49.398;7.614;2022-12-18T11:35:45;50.67;;;26.42;;
50569;SDS011;36525;49.398;7.614;2022-12-18T11:38:32;49.75;;;25.23;;
50569;SDS011;36525;49.398;7.614;2022-12-18T11:41:04;47.25;;;24.70;;
50569;SDS011;36525;49.398;7.614;2022-12-18T11:43:44;46.28;;;24.67;;
50569;SDS011;36525;49.398;7.614;2022-12-18T11:46:36;43.08;;;22.83;;
50569;SDS011;36525;49.398;7.614;2022-12-18T11:49:07;45.63;;;23.92;;
50569;SDS011;36525;49.398;7.614;2022-12-18T11:51:41;40.58;;;21.65;;
50569;SDS011;36525;49.398;7.614;2022-12-18T11:54:14;49.45;;;24.90;;
50569;SDS011;36525;49.398;7.614;2022-12-18T11:56:53;46.15;;;25.80;;
50569;SDS011;36525;49.398;7.614;2022-12-18T12:07:44;42.40;;;22.38;;
50569;SDS011;36525;49.398;7.614;2022-12-18T12:10:53;43.70;;;23.02;;
50569;SDS011;36525;49.398;7.614;2022-12-18T12:24:54;53.10;;;27.95;;
50569;SDS011;36525;49.398;7.614;2022-12-18T12:35:52;56.67;;;29.35;;
50569;SDS011;36525;49.398;7.614;2022-12-18T12:38:41;57.90;;;28.95;;
50569;SDS011;36525;49.398;7.614;2022-12-18T12:41:18;55.03;;;29.27;;
50569;SDS011;36525;49.398;7.614;2022-12-18T12:44:07;57.67;;;30.48;;
50569;SDS011;36525;49.398;7.614;2022-12-18T12:46:40;57.25;;;31.05;;
50569;SDS011;36525;49.398;7.614;2022-12-18T12:49:18;56.13;;;29.48;;
50569;SDS011;36525;49.398;7.614;2022-12-18T12:54:53;58.80;;;32.00;;
50569;SDS011;36525;49.398;7.614;2022-12-18T13:00:11;49.65;;;27.45;;
50569;SDS011;36525;49.398;7.614;2022-12-18T13:08:08;56.60;;;29.73;;
50569;SDS011;36525;49.398;7.614;2022-12-18T13:10:40;59.05;;;30.48;;
50569;SDS011;36525;49.398;7.614;2022-12-18T13:13:13;56.10;;;30.92;;
50569;SDS011;36525;49.398;7.614;2022-12-18T13:15:46;51.63;;;27.73;;
50569;SDS011;36525;49.398;7.614;2022-12-18T13:18:19;50.95;;;28.77;;
50569;SDS011;36525;49.398;7.614;2022-12-18T13:23:31;45.65;;;26.13;;
50569;SDS011;36525;49.398;7.614;2022-12-18T13:31:14;46.05;;;26.63;;
50569;SDS011;36525;49.398;7.614;2022-12-18T13:36:53;49.45;;;26.63;;
50569;SDS011;36525;49.398;7.614;2022-12-18T13:39:23;44.95;;;24.92;;
50569;SDS011;36525;49.398;7.614;2022-12-18T13:44:34;57.85;;;31.10;;
50569;SDS011;36525;49.398;7.614;2022-12-18T13:50:00;53.57;;;29.83;;
50569;SDS011;36525;49.398;7.614;2022-12-18T13:52:33;46.90;;;27.00;;
50569;SDS011;36525;49.398;7.614;2022-12-18T13:55:04;48.92;;;27.70;;
50569;SDS011;36525;49.398;7.614;2022-12-18T13:57:38;54.92;;;28.75;;
50569;SDS011;36525;49.398;7.614;2022-12-18T14:02:44;47.50;;;28.10;;
50569;SDS011;36525;49.398;7.614;2022-12-18T14:05:25;53.63;;;30.05;;
50569;SDS011;36525;49.398;7.614;2022-12-18T14:07:52;45.50;;;25.58;;
50569;SDS011;36525;49.398;7.614;2022-12-18T14:10:21;54.67;;;30.52;;
50569;SDS011;36525;49.398;7.614;2022-12-18T14:13:09;50.38;;;27.25;;
50569;SDS011;36525;49.398;7.614;2022-12-18T14:15:41;82.45;;;51.30;;
50569;SDS011;36525;49.398;7.614;2022-12-18T14:20:49;53.42;;;29.10;;
50569;SDS011;36525;49.398;7.614;2022-12-18T14:23:52;50.05;;;27.45;;
50569;SDS011;36525;49.398;7.614;2022-12-18T14:26:28;52.22;;;29.95;;
50569;SDS011;36525;49.398;7.614;2022-12-18T14:28:57;51.35;;;28.45;;
50569;SDS011;36525;49.398;7.614;2022-12-18T14:31:44;59.97;;;31.17;;
50569;SDS011;36525;49.398;7.614;2022-12-18T14:34:15;60.78;;;31.42;;
50569;SDS011;36525;49.398;7.614;2022-12-18T14:36:51;55.78;;;29.52;;
50569;SDS011;36525;49.398;7.614;2022-12-18T14:39:19;49.03;;;27.38;;
50569;SDS011;36525;49.398;7.614;2022-12-18T14:41:48;51.58;;;28.35;;
50569;SDS011;36525;49.398;7.614;2022-12-18T14:44:16;50.53;;;29.15;;
50569;SDS011;36525;49.398;7.614;2022-12-18T14:46:44;53.28;;;30.67;;
50569;SDS011;36525;49.398;7.614;2022-12-18T14:49:20;60.35;;;31.33;;
50569;SDS011;36525;49.398;7.614;2022-12-18T14:51:49;49.58;;;27.35;;
50569;SDS011;36525;49.398;7.614;2022-12-18T14:54:19;49.05;;;27.55;;
50569;SDS011;36525;49.398;7.614;2022-12-18T14:56:51;51.22;;;29.42;;
50569;SDS011;36525;49.398;7.614;2022-12-18T14:59:28;57.65;;;31.55;;
50569;SDS011;36525;49.398;7.614;2022-12-18T15:02:00;52.40;;;29.58;;
50569;SDS011;36525;49.398;7.614;2022-12-18T15:04:37;57.85;;;31.13;;
50569;SDS011;36525;49.398;7.614;2022-12-18T15:07:13;59.47;;;32.33;;
50569;SDS011;36525;49.398;7.614;2022-12-18T15:09:43;58.55;;;31.80;;
50569;SDS011;36525;49.398;7.614;2022-12-18T15:20:46;68.82;;;33.90;;
50569;SDS011;36525;49.398;7.614;2022-12-18T15:23:34;69.95;;;35.90;;
50569;SDS011;36525;49.398;7.614;2022-12-18T15:26:18;62.30;;;32.30;;
50569;SDS011;36525;49.398;7.614;2022-12-18T15:28:51;65.60;;;33.50;;
50569;SDS011;36525;49.398;7.614;2022-12-18T15:31:22;55.75;;;28.80;;
50569;SDS011;36525;49.398;7.614;2022-12-18T15:34:09;56.95;;;30.70;;
50569;SDS011;36525;49.398;7.614;2022-12-18T15:36:45;56.90;;;30.23;;
50569;SDS011;36525;49.398;7.614;2022-12-18T15:39:12;74.35;;;38.50;;
50569;SDS011;36525;49.398;7.614;2022-12-18T15:41:40;60.83;;;33.80;;
50569;SDS011;36525;49.398;7.614;2022-12-18T15:44:27;59.55;;;32.42;;
50569;SDS011;36525;49.398;7.614;2022-12-18T15:46:56;69.40;;;35.50;;
50569;SDS011;36525;49.398;7.614;2022-12-18T15:49:23;71.80;;;36.08;;
50569;SDS011;36525;49.398;7.614;2022-12-18T15:51:54;69.47;;;35.83;;
50569;SDS011;36525;49.398;7.614;2022-12-18T15:54:24;76.57;;;37.75;;
50569;SDS011;36525;49.398;7.614;2022-12-18T15:57:10;63.20;;;34.65;;
50569;SDS011;36525;49.398;7.614;2022-12-18T15:59:54;56.78;;;30.98;;
50569;SDS011;36525;49.398;7.614;2022-12-18T16:02:24;56.92;;;31.20;;
50569;SDS011;36525;49.398;7.614;2022-12-18T16:04:52;78.18;;;35.88;;
50569;SDS011;36525;49.398;7.614;2022-12-18T16:07:20;66.43;;;33.78;;
50569;SDS011;36525;49.398;7.614;2022-12-18T16:09:50;82.35;;;39.88;;
50569;SDS011;36525;49.398;7.614;2022-12-18T16:12:21;80.10;;;38.28;;
50569;SDS011;36525;49.398;7.614;2022-12-18T16:14:49;75.07;;;36.78;;
50569;SDS011;36525;49.398;7.614;2022-12-18T16:17:17;66.18;;;35.95;;
50569;SDS011;36525;49.398;7.614;2022-12-18T16:19:44;62.08;;;32.50;;
50569;SDS011;36525;49.398;7.614;2022-12-18T16:22:30;66.70;;;34.50;;
50569;SDS011;36525;49.398;7.614;2022-12-18T16:24:57;64.68;;;32.70;;
50569;SDS011;36525;49.398;7.614;2022-12-18T16:27:25;66.10;;;32.47;;
50569;SDS011;36525;49.398;7.614;2022-12-18T16:29:52;62.78;;;32.63;;
50569;SDS011;36525;49.398;7.614;2022-12-18T16:32:20;67.43;;;33.00;;
50569;SDS011;36525;49.398;7.614;2022-12-18T16:34:49;62.28;;;30.83;;
50569;SDS011;36525;49.398;7.614;2022-12-18T16:37:17;61.35;;;29.70;;
50569;SDS011;36525;49.398;7.614;2022-12-18T16:39:45;52.95;;;27.13;;
50569;SDS011;36525;49.398;7.614;2022-12-18T16:42:16;57.17;;;30.02;;
50569;SDS011;36525;49.398;7.614;2022-12-18T16:44:46;46.70;;;24.52;;
50569;SDS011;36525;49.398;7.614;2022-12-18T16:47:14;57.60;;;28.67;;
50569;SDS011;36525;49.398;7.614;2022-12-18T16:49:42;63.13;;;31.83;;
50569;SDS011;36525;49.398;7.614;2022-12-18T16:52:17;64.50;;;31.08;;
50569;SDS011;36525;49.398;7.614;2022-12-18T16:54:44;66.63;;;33.28;;
50569;SDS011;36525;49.398;7.614;2022-12-18T16:57:13;68.95;;;34.13;;
50569;SDS011;36525;49.398;7.614;2022-12-18T16:59:42;69.93;;;31.17;;
50569;SDS011;36525;49.398;7.614;2022-12-18T17:02:11;70.38;;;32.58;;
50569;SDS011;36525;49.398;7.614;2022-12-18T17:04:42;66.28;;;32.10;;
50569;SDS011;36525;49.398;7.614;2022-12-18T17:07:10;67.97;;;33.80;;
50569;SDS011;36525;49.398;7.614;2022-12-18T17:09:37;62.58;;;29.98;;
50569;SDS011;36525;49.398;7.614;2022-12-18T17:12:05;70.97;;;33.95;;